createdAt,value
2022-10-17T00:03:10.824Z,14.73
2022-10-17T00:08:34.248Z,14.70
2022-10-17T00:13:57.835Z,14.65
2022-10-17T00:19:22.306Z,14.68
2022-10-17T00:24:45.420Z,14.65
2022-10-17T00:30:13.171Z,14.56
2022-10-17T00:35:37.619Z,14.53
2022-10-17T00:41:00.818Z,14.49
2022-10-17T00:46:25.993Z,14.41
2022-10-17T00:51:52.644Z,14.32
2022-10-17T00:57:16.854Z,14.22
2022-10-17T01:02:40.263Z,14.13
2022-10-17T01:08:05.094Z,14.06
2022-10-17T01:13:33.019Z,14.12
2022-10-17T01:19:02.618Z,14.17
2022-10-17T01:24:47.538Z,14.17
2022-10-17T01:30:34.651Z,14.15
2022-10-17T01:36:04.792Z,14.25
2022-10-17T01:41:36.848Z,14.19
2022-10-17T01:47:02.436Z,14.18
2022-10-17T01:52:29.359Z,14.28
2022-10-17T01:57:55.083Z,14.35
2022-10-17T02:03:20.639Z,14.33
2022-10-17T02:08:46.366Z,14.38
2022-10-17T02:14:22.765Z,14.49
2022-10-17T02:19:54.319Z,14.54
2022-10-17T02:25:28.038Z,14.67
2022-10-17T02:30:55.292Z,14.84
2022-10-17T02:36:20.761Z,14.95
2022-10-17T02:41:45.726Z,15.10
2022-10-17T02:47:12.874Z,15.07
2022-10-17T02:52:38.379Z,15.21
2022-10-17T02:58:07.633Z,15.18
2022-10-17T03:03:34.524Z,15.20
2022-10-17T03:08:58.920Z,15.23
2022-10-17T03:14:24.229Z,15.29
2022-10-17T03:19:47.734Z,15.38
2022-10-17T03:25:11.235Z,15.42
2022-10-17T03:30:35.833Z,15.44
2022-10-17T03:35:59.056Z,15.41
2022-10-17T03:41:22.372Z,15.36
2022-10-17T03:46:47.093Z,15.36
2022-10-17T03:52:12.559Z,15.43
2022-10-17T03:57:36.852Z,15.58
2022-10-17T04:03:03.010Z,15.60
2022-10-17T04:08:26.559Z,15.53
2022-10-17T04:14:01.502Z,15.75
2022-10-17T04:19:27.503Z,15.82
2022-10-17T04:24:50.977Z,15.86
2022-10-17T04:30:36.294Z,15.75
2022-10-17T04:36:01.910Z,15.77
2022-10-17T04:41:26.094Z,15.73
2022-10-17T04:46:49.391Z,15.82
2022-10-17T04:52:14.702Z,15.97
2022-10-17T04:57:42.451Z,15.89
2022-10-17T05:03:13.114Z,16.05
2022-10-17T05:08:38.243Z,16.08
2022-10-17T05:14:02.701Z,16.13
2022-10-17T05:19:28.315Z,16.23
2022-10-17T05:24:53.032Z,16.37
2022-10-17T05:30:16.329Z,16.39
2022-10-17T05:35:39.697Z,16.51
2022-10-17T05:41:06.552Z,16.60
2022-10-17T05:46:30.264Z,16.59
2022-10-17T05:51:53.435Z,16.54
2022-10-17T05:57:18.486Z,16.64
2022-10-17T06:02:41.726Z,16.62
2022-10-17T06:08:06.926Z,16.68
2022-10-17T06:13:34.028Z,16.64
2022-10-17T06:19:01.178Z,16.70
2022-10-17T06:24:24.361Z,16.75
2022-10-17T06:29:51.199Z,16.65
2022-10-17T06:35:14.651Z,16.68
2022-10-17T06:40:38.287Z,16.85
2022-10-17T06:46:02.843Z,16.87
2022-10-17T06:51:29.490Z,16.84
2022-10-17T06:56:56.069Z,16.94
2022-10-17T07:02:26.777Z,17.00
2022-10-17T07:07:52.561Z,17.12
2022-10-17T07:13:15.726Z,17.06
2022-10-17T07:18:41.115Z,17.03
2022-10-17T07:24:06.682Z,17.19
2022-10-17T07:29:30.138Z,17.20
2022-10-17T07:35:07.952Z,17.15
2022-10-17T07:40:32.059Z,17.14
2022-10-17T07:45:56.187Z,17.07
2022-10-17T07:51:22.019Z,17.12
2022-10-17T07:56:50.309Z,16.77
2022-10-17T08:02:15.504Z,16.76
2022-10-17T08:07:41.370Z,16.73
2022-10-17T08:13:04.493Z,16.81
2022-10-17T08:18:27.729Z,16.90
2022-10-17T08:23:52.212Z,17.00
2022-10-17T08:29:15.685Z,16.89
2022-10-17T08:34:38.883Z,16.80
2022-10-17T08:40:03.479Z,16.64
2022-10-17T08:45:30.993Z,16.58
2022-10-17T08:50:56.363Z,16.43
2022-10-17T08:56:30.467Z,16.44
2022-10-17T09:02:17.660Z,16.44
2022-10-17T09:07:46.443Z,16.57
2022-10-17T09:13:22.134Z,16.73
2022-10-17T09:18:48.657Z,16.74
2022-10-17T09:24:16.244Z,16.93
2022-10-17T09:29:43.793Z,16.95
2022-10-17T09:35:13.535Z,16.97
2022-10-17T09:40:37.777Z,16.94
2022-10-17T09:46:08.229Z,17.01
2022-10-17T09:51:32.220Z,17.17
2022-10-17T09:56:59.337Z,17.17
2022-10-17T10:02:25.287Z,17.01
2022-10-17T10:08:03.031Z,16.96
2022-10-17T10:13:27.967Z,16.71
2022-10-17T10:18:53.957Z,16.60
2022-10-17T10:24:17.038Z,16.73
2022-10-17T10:29:43.210Z,16.77
2022-10-17T10:35:22.552Z,16.80
2022-10-17T10:40:47.612Z,16.62
2022-10-17T10:46:19.122Z,16.41
2022-10-17T10:51:47.919Z,16.28
2022-10-17T10:57:19.890Z,16.23
2022-10-17T11:02:48.685Z,16.21
2022-10-17T11:08:21.488Z,16.15
2022-10-17T11:13:49.598Z,16.27
2022-10-17T11:19:19.319Z,16.38
2022-10-17T11:24:48.223Z,16.40
2022-10-17T11:30:13.884Z,16.47
2022-10-17T11:35:42.010Z,16.74
2022-10-17T11:41:07.069Z,16.61
2022-10-17T11:46:30.667Z,16.65
2022-10-17T11:52:00.818Z,16.83
2022-10-17T11:57:37.396Z,16.88
2022-10-17T12:03:13.082Z,16.63
2022-10-17T12:08:41.607Z,16.55
2022-10-17T12:14:37.946Z,16.70
2022-10-17T12:20:26.364Z,16.80
2022-10-17T12:25:51.411Z,16.78
2022-10-17T12:31:28.527Z,16.89
2022-10-17T12:36:55.788Z,17.01
2022-10-17T12:42:33.826Z,16.94
2022-10-17T12:47:58.323Z,16.99
2022-10-17T12:53:24.355Z,17.06
2022-10-17T12:58:49.388Z,17.01
2022-10-17T13:04:38.598Z,16.99
2022-10-17T13:10:05.148Z,16.95
2022-10-17T13:15:29.137Z,16.95
2022-10-17T13:21:04.647Z,17.22
2022-10-17T13:26:29.025Z,17.24
2022-10-17T13:31:55.319Z,17.08
2022-10-17T13:37:20.110Z,17.12
2022-10-17T13:42:43.499Z,17.10
2022-10-17T13:48:10.065Z,17.10
2022-10-17T13:53:36.507Z,17.17
2022-10-17T13:59:01.202Z,17.23
2022-10-17T14:04:24.350Z,17.39
2022-10-17T14:09:48.894Z,17.61
2022-10-17T14:15:14.618Z,17.78
2022-10-17T14:21:19.863Z,17.84
2022-10-17T14:26:24.839Z,17.82
2022-10-17T14:31:50.562Z,17.61
2022-10-17T14:37:27.370Z,17.64
2022-10-17T14:42:53.260Z,17.86
2022-10-17T14:48:18.470Z,17.72
2022-10-17T14:53:42.418Z,17.66
2022-10-17T14:59:11.795Z,17.53
2022-10-17T15:04:35.739Z,17.57
2022-10-17T15:09:58.835Z,17.55
2022-10-17T15:15:23.318Z,17.72
2022-10-17T15:20:46.469Z,17.42
2022-10-17T15:26:18.246Z,17.39
2022-10-17T15:31:42.774Z,17.28
2022-10-17T15:37:06.660Z,17.30
2022-10-17T15:42:31.209Z,17.27
2022-10-17T15:47:57.588Z,17.29
2022-10-17T15:53:20.630Z,17.22
2022-10-17T15:58:44.021Z,17.28
2022-10-17T16:04:12.663Z,17.30
2022-10-17T16:09:37.295Z,17.25
2022-10-17T16:15:03.982Z,17.06
2022-10-17T16:20:28.451Z,17.03
2022-10-17T16:25:51.722Z,17.15
2022-10-17T16:31:20.219Z,17.02
2022-10-17T16:36:44.790Z,16.87
2022-10-17T16:42:07.924Z,16.79
2022-10-17T16:47:30.989Z,16.79
2022-10-17T16:52:55.414Z,16.51
2022-10-17T16:58:18.478Z,16.51
2022-10-17T17:03:42.633Z,16.39
2022-10-17T17:09:09.216Z,16.37
2022-10-17T17:14:32.248Z,16.55
2022-10-17T17:19:55.753Z,16.44
2022-10-17T17:25:20.283Z,16.52
2022-10-17T17:30:43.318Z,16.58
2022-10-17T17:36:07.016Z,16.54
2022-10-17T17:41:31.779Z,16.54
2022-10-17T17:46:54.920Z,16.49
2022-10-17T17:52:18.059Z,16.57
2022-10-17T17:57:42.725Z,16.29
2022-10-17T18:03:05.907Z,16.11
2022-10-17T18:08:29.044Z,16.15
2022-10-17T18:13:55.936Z,16.25
2022-10-17T18:19:19.061Z,16.40
2022-10-17T18:24:42.273Z,16.33
2022-10-17T18:30:08.484Z,16.11
2022-10-17T18:35:32.197Z,16.21
2022-10-17T18:41:03.668Z,16.20
2022-10-17T18:46:29.889Z,16.23
2022-10-17T18:51:52.958Z,16.18
2022-10-17T18:57:16.186Z,16.14
2022-10-17T19:02:40.632Z,15.95
2022-10-17T19:08:03.783Z,15.98
2022-10-17T19:13:26.860Z,16.27
2022-10-17T19:18:52.351Z,16.14
2022-10-17T19:24:17.388Z,16.00
2022-10-17T19:29:43.419Z,16.06
2022-10-17T19:35:11.150Z,15.98
2022-10-17T19:40:35.424Z,16.20
2022-10-17T19:46:00.467Z,16.36
2022-10-17T19:51:25.687Z,16.36
2022-10-17T19:56:49.582Z,16.39
2022-10-17T20:02:13.757Z,16.43
2022-10-17T20:07:38.209Z,16.43
2022-10-17T20:13:01.368Z,16.44
2022-10-17T20:18:24.804Z,16.36
2022-10-17T20:23:50.550Z,16.36
2022-10-17T20:29:15.569Z,16.29
2022-10-17T20:34:39.345Z,16.32
2022-10-17T20:40:32.920Z,16.23
2022-10-17T20:45:51.516Z,16.20
2022-10-17T20:51:16.520Z,16.17
2022-10-17T20:56:41.154Z,16.10
2022-10-17T21:02:04.796Z,16.18
2022-10-17T21:07:28.207Z,16.13
2022-10-17T21:12:54.302Z,16.06
2022-10-17T21:18:17.642Z,15.91
2022-10-17T21:23:41.909Z,15.95
2022-10-17T21:29:07.068Z,15.89
2022-10-17T21:34:30.254Z,15.86
2022-10-17T21:39:53.667Z,15.77
2022-10-17T21:45:25.356Z,15.81
2022-10-17T21:50:48.845Z,15.80
2022-10-17T21:56:13.443Z,15.81
2022-10-17T22:01:40.086Z,15.77
2022-10-17T22:07:03.193Z,15.74
2022-10-17T22:12:26.304Z,15.78
2022-10-17T22:17:50.809Z,15.73
2022-10-17T22:23:13.902Z,15.71
2022-10-17T22:28:37.503Z,15.68
2022-10-17T22:34:02.436Z,15.59
2022-10-17T22:39:26.742Z,15.64
2022-10-17T22:44:49.874Z,15.61
2022-10-17T22:50:14.522Z,15.57
2022-10-17T22:55:37.665Z,15.57
2022-10-17T23:01:01.069Z,15.56
2022-10-17T23:06:25.799Z,15.52
2022-10-17T23:11:48.866Z,15.58
2022-10-17T23:17:12.827Z,15.55
2022-10-17T23:22:37.297Z,15.54
2022-10-17T23:28:00.433Z,15.52
2022-10-17T23:33:23.608Z,15.42
2022-10-17T23:38:48.975Z,15.41
2022-10-17T23:44:12.465Z,15.43
2022-10-17T23:49:35.523Z,15.44
2022-10-17T23:54:59.968Z,15.34
